Wetterdaten: Woche 14.08.06 - 20.08.06 (KW33)
Datum Zeit Temperatur Luftfeuchte Luftdruck Niederschlag Windrichtung Wind
14.08.2006 00:00 10,6 C 98 % 1010 hPa 0,0 l/m S-SW 13,1 km/h (3 Bft)
14.08.2006 01:00 10,5 C 98 % 1010 hPa 0,0 l/m SW 15,0 km/h (3 Bft)
14.08.2006 02:00 10,1 C 98 % 1010 hPa 0,0 l/m S-SW 16,3 km/h (3 Bft)
14.08.2006 03:00 9,8 C 99 % 1010 hPa 0,0 l/m S-SW 13,3 km/h (3 Bft)
14.08.2006 04:00 9,2 C 100 % 1009 hPa 0,0 l/m S 7,6 km/h (2 Bft)
14.08.2006 05:00 9,0 C 100 % 1009 hPa 0,0 l/m S 3,2 km/h (1 Bft)
14.08.2006 06:00 8,2 C 100 % 1009 hPa 0,0 l/m N 0,0 km/h (0 Bft)
14.08.2006 07:00 9,0 C 100 % 1009 hPa 0,0 l/m S 9,1 km/h (2 Bft)
14.08.2006 08:00 10,9 C 99 % 1010 hPa 0,0 l/m S-SW 14,5 km/h (3 Bft)
14.08.2006 09:00 12,6 C 81 % 1010 hPa 0,0 l/m S-SW 17,1 km/h (3 Bft)
14.08.2006 10:00 13,2 C 79 % 1010 hPa 0,0 l/m S-SW 21,0 km/h (4 Bft)
14.08.2006 11:00 14,5 C 71 % 1009 hPa 0,0 l/m W-SW 25,2 km/h (4 Bft)
14.08.2006 12:00 15,0 C 68 % 1010 hPa 0,0 l/m W-SW 26,1 km/h (4 Bft)
14.08.2006 13:00 13,2 C 82 % 1010 hPa 0,0 l/m W-SW 27,0 km/h (4 Bft)
14.08.2006 14:00 13,6 C 81 % 1010 hPa 1,0 l/m W-SW 27,9 km/h (4 Bft)
14.08.2006 15:00 12,4 C 94 % 1010 hPa 0,0 l/m SW 24,1 km/h (4 Bft)
14.08.2006 16:00 12,7 C 91 % 1011 hPa 0,0 l/m S 23,7 km/h (4 Bft)
14.08.2006 17:00 12,3 C 96 % 1011 hPa 1,0 l/m SW 15,7 km/h (3 Bft)
14.08.2006 18:00 12,3 C 97 % 1011 hPa 0,0 l/m W-SW 18,4 km/h (3 Bft)
14.08.2006 19:00 12,0 C 96 % 1011 hPa 0,0 l/m W-SW 17,3 km/h (3 Bft)
14.08.2006 20:00 12,0 C 93 % 1012 hPa 0,0 l/m W-SW 18,1 km/h (3 Bft)
14.08.2006 21:00 11,4 C 93 % 1012 hPa 0,0 l/m S-SW 17,1 km/h (3 Bft)
14.08.2006 22:00 11,3 C 97 % 1012 hPa 0,0 l/m S 17,0 km/h (3 Bft)
14.08.2006 23:00 11,0 C 99 % 1012 hPa 0,0 l/m S-SW 16,0 km/h (3 Bft)
15.08.2006 00:00 10,9 C 98 % 1012 hPa 0,0 l/m S 18,6 km/h (3 Bft)
15.08.2006 01:00 11,3 C 92 % 1012 hPa 0,0 l/m S-SW 19,8 km/h (3 Bft)
15.08.2006 02:00 11,3 C 91 % 1012 hPa 0,0 l/m S-SW 19,7 km/h (3 Bft)
15.08.2006 03:00 11,8 C 88 % 1012 hPa 0,0 l/m SW 21,1 km/h (4 Bft)
15.08.2006 04:00 11,9 C 89 % 1012 hPa 0,0 l/m S-SW 19,5 km/h (3 Bft)
15.08.2006 05:00 11,8 C 92 % 1012 hPa 0,0 l/m S-SW 18,2 km/h (3 Bft)
15.08.2006 06:00 11,4 C 96 % 1013 hPa 0,0 l/m S-SW 17,6 km/h (3 Bft)
15.08.2006 07:00 11,6 C 95 % 1013 hPa 0,0 l/m S 17,4 km/h (3 Bft)
15.08.2006 08:00 12,3 C 89 % 1013 hPa 0,0 l/m SW 17,9 km/h (3 Bft)
15.08.2006 09:00 13,1 C 87 % 1013 hPa 0,0 l/m S 17,8 km/h (3 Bft)
15.08.2006 10:00 14,1 C 82 % 1014 hPa 0,0 l/m S-SW 19,8 km/h (3 Bft)
15.08.2006 11:00 15,3 C 75 % 1014 hPa 0,0 l/m W-SW 21,8 km/h (4 Bft)
15.08.2006 12:00 17,7 C 67 % 1013 hPa 0,0 l/m SW 16,4 km/h (3 Bft)
15.08.2006 13:00 19,3 C 57 % 1013 hPa 0,0 l/m W 14,4 km/h (3 Bft)
15.08.2006 14:00 20,6 C 48 % 1013 hPa 0,0 l/m S-SW 17,4 km/h (3 Bft)
15.08.2006 15:00 21,6 C 45 % 1012 hPa 0,0 l/m S-SW 11,1 km/h (2 Bft)
15.08.2006 16:00 21,9 C 44 % 1011 hPa 0,0 l/m W-SW 8,3 km/h (2 Bft)
15.08.2006 17:00 22,3 C 40 % 1011 hPa 0,0 l/m W 6,0 km/h (2 Bft)
15.08.2006 18:00 22,2 C 39 % 1011 hPa 0,0 l/m W-SW 4,4 km/h (1 Bft)
15.08.2006 19:00 20,0 C 50 % 1010 hPa 0,0 l/m S-SW 0,7 km/h (0 Bft)
15.08.2006 20:00 17,4 C 66 % 1010 hPa 0,0 l/m N 0,0 km/h (0 Bft)
15.08.2006 21:00 15,2 C 76 % 1011 hPa 0,0 l/m N 0,0 km/h (0 Bft)
15.08.2006 22:00 13,9 C 82 % 1011 hPa 0,0 l/m N 0,0 km/h (0 Bft)
15.08.2006 23:00 13,2 C 86 % 1010 hPa 0,0 l/m N 0,0 km/h (0 Bft)
16.08.2006 00:00 12,4 C 91 % 1010 hPa 0,0 l/m N 0,0 km/h (0 Bft)
16.08.2006 01:00 12,0 C 92 % 1010 hPa 0,0 l/m W 2,9 km/h (1 Bft)
16.08.2006 02:00 12,1 C 93 % 1010 hPa 0,0 l/m NW 5,2 km/h (1 Bft)
16.08.2006 03:00 12,5 C 94 % 1010 hPa 0,0 l/m NW 5,1 km/h (1 Bft)
16.08.2006 04:00 12,6 C 95 % 1009 hPa 0,0 l/m NW 2,9 km/h (1 Bft)
16.08.2006 05:00 12,4 C 96 % 1008 hPa 0,0 l/m N 0,0 km/h (0 Bft)
16.08.2006 06:00 12,1 C 97 % 1007 hPa 0,0 l/m NW 0,7 km/h (0 Bft)
16.08.2006 07:00 12,3 C 99 % 1007 hPa 0,0 l/m NW 4,3 km/h (1 Bft)
16.08.2006 08:00 13,2 C 96 % 1008 hPa 0,0 l/m W-SW 1,0 km/h (0 Bft)
16.08.2006 09:00 13,2 C 98 % 1009 hPa 1,0 l/m W 5,9 km/h (2 Bft)
16.08.2006 10:00 13,2 C 100 % 1009 hPa 2,0 l/m S-SO 1,9 km/h (1 Bft)
16.08.2006 11:00 13,6 C 100 % 1009 hPa 1,0 l/m S-SW 2,8 km/h (1 Bft)
16.08.2006 12:00 15,4 C 95 % 1009 hPa 0,0 l/m S 9,4 km/h (2 Bft)
16.08.2006 13:00 18,0 C 79 % 1009 hPa 0,0 l/m S-SO 6,8 km/h (2 Bft)
16.08.2006 14:00 19,4 C 69 % 1008 hPa 0,0 l/m S-SW 9,3 km/h (2 Bft)
16.08.2006 15:00 20,0 C 65 % 1008 hPa 0,0 l/m S 9,4 km/h (2 Bft)
16.08.2006 16:00 20,6 C 64 % 1008 hPa 0,0 l/m S-SO 10,1 km/h (2 Bft)
16.08.2006 17:00 20,7 C 62 % 1007 hPa 0,0 l/m S 10,4 km/h (2 Bft)
16.08.2006 18:00 20,1 C 61 % 1007 hPa 0,0 l/m S-SW 10,0 km/h (2 Bft)
16.08.2006 19:00 18,3 C 71 % 1007 hPa 0,0 l/m S 5,8 km/h (2 Bft)
16.08.2006 20:00 16,9 C 77 % 1007 hPa 0,0 l/m SO 2,1 km/h (1 Bft)
16.08.2006 21:00 15,9 C 84 % 1007 hPa 0,0 l/m N 0,0 km/h (0 Bft)
16.08.2006 22:00 14,6 C 91 % 1007 hPa 0,0 l/m N 0,0 km/h (0 Bft)
16.08.2006 23:00 13,7 C 94 % 1007 hPa 0,0 l/m N 0,0 km/h (0 Bft)
17.08.2006 00:00 13,1 C 98 % 1007 hPa 0,0 l/m N 0,0 km/h (0 Bft)
17.08.2006 01:00 12,8 C 100 % 1006 hPa 0,0 l/m NW 2,7 km/h (1 Bft)
17.08.2006 02:00 13,1 C 100 % 1006 hPa 0,0 l/m NW 6,5 km/h (2 Bft)
17.08.2006 03:00 13,0 C 100 % 1007 hPa 0,0 l/m NW 2,2 km/h (1 Bft)
17.08.2006 04:00 13,2 C 100 % 1007 hPa 0,0 l/m NW 4,6 km/h (1 Bft)
17.08.2006 05:00 13,1 C 100 % 1007 hPa 0,0 l/m NW 2,8 km/h (1 Bft)
17.08.2006 06:00 12,2 C 100 % 1008 hPa 0,0 l/m N 0,0 km/h (0 Bft)
17.08.2006 07:00 12,2 C 100 % 1008 hPa 0,0 l/m N 0,0 km/h (0 Bft)
17.08.2006 08:00 13,3 C 100 % 1009 hPa 0,0 l/m S 2,2 km/h (1 Bft)
17.08.2006 09:00 15,1 C 99 % 1009 hPa 0,0 l/m O-NO 2,7 km/h (1 Bft)
17.08.2006 10:00 18,1 C 76 % 1009 hPa 0,0 l/m O-SO 6,1 km/h (2 Bft)
17.08.2006 11:00 19,3 C 67 % 1009 hPa 0,0 l/m S-SO 5,6 km/h (1 Bft)
17.08.2006 12:00 21,0 C 59 % 1009 hPa 0,0 l/m O 3,8 km/h (1 Bft)
17.08.2006 13:00 22,2 C 53 % 1009 hPa 0,0 l/m O-NO 2,8 km/h (1 Bft)
17.08.2006 14:00 23,1 C 49 % 1009 hPa 0,0 l/m O 5,1 km/h (1 Bft)
17.08.2006 15:00 24,9 C 44 % 1008 hPa 0,0 l/m O 5,2 km/h (1 Bft)
17.08.2006 16:00 25,9 C 43 % 1007 hPa 0,0 l/m O-NO 6,0 km/h (2 Bft)
17.08.2006 17:00 26,0 C 44 % 1007 hPa 0,0 l/m O-NO 9,5 km/h (2 Bft)
17.08.2006 18:00 25,1 C 46 % 1006 hPa 0,0 l/m O-NO 10,3 km/h (2 Bft)
17.08.2006 19:00 23,5 C 50 % 1006 hPa 0,0 l/m O-NO 8,2 km/h (2 Bft)
17.08.2006 20:00 21,8 C 59 % 1006 hPa 0,0 l/m O-NO 1,8 km/h (1 Bft)
17.08.2006 21:00 19,4 C 73 % 1005 hPa 0,0 l/m N 0,0 km/h (0 Bft)
17.08.2006 22:00 18,0 C 80 % 1005 hPa 0,0 l/m W-NW 0,6 km/h (0 Bft)
17.08.2006 23:00 17,6 C 83 % 1004 hPa 0,0 l/m N 0,0 km/h (0 Bft)
18.08.2006 00:00 17,0 C 85 % 1004 hPa 0,0 l/m N 0,0 km/h (0 Bft)
18.08.2006 01:00 16,7 C 90 % 1004 hPa 0,0 l/m N 0,0 km/h (0 Bft)
18.08.2006 02:00 16,5 C 92 % 1003 hPa 0,0 l/m N 0,0 km/h (0 Bft)
18.08.2006 03:00 16,2 C 93 % 1003 hPa 0,0 l/m N 0,0 km/h (0 Bft)
18.08.2006 04:00 15,8 C 93 % 1004 hPa 0,0 l/m NW 3,6 km/h (1 Bft)
18.08.2006 05:00 16,1 C 90 % 1005 hPa 0,0 l/m NW 3,9 km/h (1 Bft)
18.08.2006 06:00 15,9 C 91 % 1006 hPa 3,0 l/m W 10,9 km/h (2 Bft)
18.08.2006 07:00 13,4 C 96 % 1010 hPa 1,0 l/m S-SW 11,4 km/h (2 Bft)
18.08.2006 08:00 13,5 C 100 % 1010 hPa 0,0 l/m S 10,0 km/h (2 Bft)
18.08.2006 09:00 14,2 C 100 % 1011 hPa 0,0 l/m S-SW 10,2 km/h (2 Bft)
18.08.2006 10:00 15,3 C 89 % 1012 hPa 0,0 l/m S-SW 14,0 km/h (3 Bft)
18.08.2006 11:00 17,2 C 67 % 1012 hPa 0,0 l/m SW 16,3 km/h (3 Bft)
18.08.2006 12:00 18,8 C 59 % 1013 hPa 0,0 l/m S-SW 15,7 km/h (3 Bft)
18.08.2006 13:00 20,2 C 53 % 1013 hPa 0,0 l/m S 13,9 km/h (3 Bft)
18.08.2006 14:00 21,3 C 48 % 1013 hPa 0,0 l/m W-SW 12,2 km/h (2 Bft)
18.08.2006 15:00 22,3 C 45 % 1013 hPa 0,0 l/m SW 11,0 km/h (2 Bft)
18.08.2006 16:00 22,9 C 43 % 1013 hPa 0,0 l/m W-SW 8,7 km/h (2 Bft)
18.08.2006 17:00 23,5 C 41 % 1012 hPa 0,0 l/m W-SW 5,9 km/h (2 Bft)
18.08.2006 18:00 23,8 C 41 % 1013 hPa 0,0 l/m S 5,1 km/h (1 Bft)
18.08.2006 19:00 21,2 C 52 % 1013 hPa 0,0 l/m S-SW 0,6 km/h (0 Bft)
18.08.2006 20:00 18,6 C 69 % 1014 hPa 0,0 l/m N 0,0 km/h (0 Bft)
18.08.2006 21:00 16,6 C 75 % 1015 hPa 0,0 l/m N 0,0 km/h (0 Bft)
18.08.2006 22:00 15,4 C 80 % 1015 hPa 0,0 l/m N 0,0 km/h (0 Bft)
18.08.2006 23:00 14,4 C 84 % 1015 hPa 0,0 l/m N 0,0 km/h (0 Bft)
19.08.2006 00:00 13,8 C 87 % 1015 hPa 0,0 l/m N 0,0 km/h (0 Bft)
19.08.2006 01:00 13,1 C 91 % 1015 hPa 0,0 l/m N 0,0 km/h (0 Bft)
19.08.2006 02:00 12,6 C 94 % 1015 hPa 0,0 l/m N 0,0 km/h (0 Bft)
19.08.2006 03:00 12,4 C 95 % 1015 hPa 0,0 l/m W-NW 1,7 km/h (1 Bft)
19.08.2006 04:00 12,1 C 92 % 1016 hPa 0,0 l/m N 0,0 km/h (0 Bft)
19.08.2006 05:00 11,4 C 93 % 1015 hPa 0,0 l/m N 0,0 km/h (0 Bft)
19.08.2006 06:00 11,0 C 97 % 1015 hPa 0,0 l/m W-NW 0,8 km/h (0 Bft)
19.08.2006 07:00 11,8 C 97 % 1015 hPa 0,0 l/m N 0,0 km/h (0 Bft)
19.08.2006 08:00 13,7 C 94 % 1015 hPa 0,0 l/m W-NW 2,8 km/h (1 Bft)
19.08.2006 09:00 16,1 C 84 % 1016 hPa 0,0 l/m NW 3,2 km/h (1 Bft)
19.08.2006 10:00 18,2 C 74 % 1016 hPa 0,0 l/m N-NW 3,1 km/h (1 Bft)
19.08.2006 11:00 20,7 C 68 % 1015 hPa 0,0 l/m W-SW 4,0 km/h (1 Bft)
19.08.2006 12:00 22,5 C 57 % 1015 hPa 0,0 l/m W-SW 5,4 km/h (1 Bft)
19.08.2006 13:00 24,6 C 50 % 1015 hPa 0,0 l/m S 6,3 km/h (2 Bft)
19.08.2006 14:00 25,9 C 44 % 1015 hPa 0,0 l/m W 5,5 km/h (1 Bft)
19.08.2006 15:00 26,1 C 41 % 1015 hPa 0,0 l/m W-SW 6,5 km/h (2 Bft)
19.08.2006 16:00 26,1 C 38 % 1015 hPa 0,0 l/m W 7,8 km/h (2 Bft)
19.08.2006 17:00 26,2 C 39 % 1015 hPa 0,0 l/m W-SW 6,1 km/h (2 Bft)
19.08.2006 18:00 24,4 C 42 % 1015 hPa 0,0 l/m W-SW 6,8 km/h (2 Bft)
19.08.2006 19:00 21,5 C 51 % 1016 hPa 0,0 l/m W 15,6 km/h (3 Bft)
19.08.2006 20:00 19,4 C 64 % 1017 hPa 0,0 l/m W-SW 11,4 km/h (2 Bft)
19.08.2006 21:00 18,0 C 77 % 1018 hPa 0,0 l/m W-SW 9,0 km/h (2 Bft)
19.08.2006 22:00 16,2 C 92 % 1019 hPa 2,0 l/m S 9,9 km/h (2 Bft)
19.08.2006 23:00 15,3 C 100 % 1019 hPa 1,0 l/m S 15,9 km/h (3 Bft)
20.08.2006 00:00 14,5 C 100 % 1019 hPa 1,0 l/m S 14,0 km/h (3 Bft)
20.08.2006 01:00 14,4 C 100 % 1020 hPa 1,0 l/m S 9,4 km/h (2 Bft)
20.08.2006 02:00 14,5 C 100 % 1020 hPa 0,0 l/m S 8,2 km/h (2 Bft)
20.08.2006 03:00 14,5 C 100 % 1019 hPa 0,0 l/m S-SO 0,4 km/h (0 Bft)
20.08.2006 04:00 14,4 C 100 % 1019 hPa 0,0 l/m N 0,0 km/h (0 Bft)
20.08.2006 05:00 14,3 C 100 % 1020 hPa 0,0 l/m N 0,0 km/h (0 Bft)
20.08.2006 06:00 14,2 C 100 % 1020 hPa 0,0 l/m N 0,0 km/h (0 Bft)
20.08.2006 07:00 14,3 C 100 % 1020 hPa 0,0 l/m S 1,1 km/h (0 Bft)
20.08.2006 08:00 14,9 C 100 % 1020 hPa 0,0 l/m S 5,7 km/h (1 Bft)
20.08.2006 09:00 15,6 C 100 % 1020 hPa 0,0 l/m S-SW 9,2 km/h (2 Bft)
20.08.2006 10:00 16,2 C 97 % 1021 hPa 0,0 l/m S 11,4 km/h (2 Bft)
20.08.2006 11:00 17,1 C 92 % 1021 hPa 0,0 l/m S 13,2 km/h (3 Bft)
20.08.2006 12:00 17,7 C 87 % 1020 hPa 0,0 l/m S 16,2 km/h (3 Bft)
20.08.2006 13:00 16,7 C 92 % 1021 hPa 0,0 l/m S 17,7 km/h (3 Bft)
20.08.2006 14:00 17,3 C 87 % 1021 hPa 0,0 l/m S 17,8 km/h (3 Bft)
20.08.2006 15:00 18,4 C 81 % 1021 hPa 0,0 l/m S 17,4 km/h (3 Bft)
20.08.2006 16:00 19,0 C 73 % 1021 hPa 0,0 l/m S 16,2 km/h (3 Bft)
20.08.2006 17:00 19,1 C 67 % 1021 hPa 0,0 l/m SW 12,9 km/h (3 Bft)
20.08.2006 18:00 17,3 C 81 % 1021 hPa 0,0 l/m SW 8,6 km/h (2 Bft)
20.08.2006 19:00 16,9 C 84 % 1021 hPa 0,0 l/m S-SW 9,0 km/h (2 Bft)
20.08.2006 20:00 15,5 C 89 % 1021 hPa 0,0 l/m SW 5,4 km/h (1 Bft)
20.08.2006 21:00 14,8 C 91 % 1022 hPa 0,0 l/m S 4,5 km/h (1 Bft)
20.08.2006 22:00 14,4 C 91 % 1022 hPa 0,0 l/m W-SW 6,2 km/h (2 Bft)
20.08.2006 23:00 14,3 C 89 % 1022 hPa 0,0 l/m SW 7,6 km/h (2 Bft)
Min-Datum _ 14.08.06 15.08.06 18.08.06 - - 14.08.06
_ Min-Zeit 06:38 18:09 01:18 - - 00:13
Minimum _ 8,1 C 37 % 1003 hPa - - 0,0 km/h (0 Bft)
Max-Datum _ 19.08.06 14.08.06 20.08.06 18.08.06 - 14.08.06
_ Max-Zeit 14:51 02:43 21:03 06:48 - 12:21
Maximum _ 26,4 C 100 % 1022 hPa 3,0 l/m - 50,7 km/h
W-SW (7 Bft)
Durchschnitt _ 16,0 C 81 % 1012 hPa #15,0 l/m S-SW 8,3 km/h (2 Bft)

Durchschnitt Minimum Temp.15,6 C
Durchschnitt Maximum Temp.16,5 C